createdAt,value
2022-09-17T00:01:23.368Z,101515.41
2022-09-17T00:03:57.316Z,101536.69
2022-09-17T00:06:26.313Z,101551.72
2022-09-17T00:08:54.732Z,101549.84
2022-09-17T00:11:30.670Z,101540.34
2022-09-17T00:14:01.716Z,101541.84
2022-09-17T00:16:32.142Z,101545.34
2022-09-17T00:19:00.482Z,101544.03
2022-09-17T00:21:28.755Z,101537.78
2022-09-17T00:23:58.411Z,101538.41
2022-09-17T00:26:26.777Z,101543.31
2022-09-17T00:28:55.157Z,101540.72
2022-09-17T00:31:23.142Z,101531.31
2022-09-17T00:33:50.503Z,101534.00
2022-09-17T00:36:20.530Z,101523.97
2022-09-17T00:38:57.376Z,101520.50
2022-09-17T00:41:28.548Z,101518.44
2022-09-17T00:43:59.322Z,101526.00
2022-09-17T00:46:42.578Z,101520.66
2022-09-17T00:49:30.840Z,101517.09
2022-09-17T00:52:07.324Z,101522.66
2022-09-17T00:54:36.895Z,101522.81
2022-09-17T00:57:04.211Z,101526.94
2022-09-17T00:59:31.365Z,101529.09
2022-09-17T01:01:58.687Z,101540.31
2022-09-17T01:04:27.634Z,101538.34
2022-09-17T01:07:18.735Z,101539.00
2022-09-17T01:10:16.808Z,101528.94
2022-09-17T01:13:23.310Z,101520.31
2022-09-17T01:16:07.301Z,101523.41
2022-09-17T01:18:46.973Z,101519.63
2022-09-17T01:21:32.051Z,101520.94
2022-09-17T01:24:17.778Z,101535.25
2022-09-17T01:27:17.658Z,101523.88
2022-09-17T01:30:02.716Z,101518.06
2022-09-17T01:32:52.995Z,101529.75
2022-09-17T01:35:49.756Z,101514.09
2022-09-17T01:38:45.467Z,101524.66
2022-09-17T01:41:29.546Z,101528.25
2022-09-17T01:44:07.975Z,101527.28
2022-09-17T01:46:47.855Z,101532.63
2022-09-17T01:49:16.784Z,101535.19
2022-09-17T01:51:48.707Z,101537.66
2022-09-17T01:54:29.879Z,101547.78
2022-09-17T01:57:13.312Z,101525.97
2022-09-17T01:59:51.502Z,101523.72
2022-09-17T02:02:35.870Z,101527.63
2022-09-17T02:05:21.285Z,101525.81
2022-09-17T02:08:02.762Z,101533.41
2022-09-17T02:10:39.396Z,101533.78
2022-09-17T02:13:23.481Z,101531.91
2022-09-17T02:15:58.742Z,101530.44
2022-09-17T02:18:36.373Z,101524.34
2022-09-17T02:21:13.227Z,101531.09
2022-09-17T02:23:54.670Z,101532.72
2022-09-17T02:26:23.247Z,101528.59
2022-09-17T02:29:05.732Z,101523.34
2022-09-17T02:31:33.112Z,101525.31
2022-09-17T02:34:03.251Z,101532.03
2022-09-17T02:36:32.206Z,101530.75
2022-09-17T02:39:02.294Z,101528.22
2022-09-17T02:41:54.814Z,101533.63
2022-09-17T02:45:07.617Z,101531.22
2022-09-17T02:47:51.699Z,101535.25
2022-09-17T02:50:35.613Z,101532.75
2022-09-17T02:53:20.157Z,101525.28
2022-09-17T02:56:20.557Z,101526.19
2022-09-17T02:59:12.399Z,101525.06
2022-09-17T03:01:49.456Z,101537.72
2022-09-17T03:04:18.951Z,101538.69
2022-09-17T03:06:47.439Z,101539.06
2022-09-17T03:09:17.492Z,101541.06
2022-09-17T03:11:44.724Z,101542.31
2022-09-17T03:14:11.742Z,101524.44
2022-09-17T03:16:38.757Z,101521.00
2022-09-17T03:19:06.186Z,101522.66
2022-09-17T03:21:33.198Z,101516.75
2022-09-17T03:24:00.448Z,101523.88
2022-09-17T03:26:27.770Z,101514.13
2022-09-17T03:28:54.780Z,101514.75
2022-09-17T03:31:21.895Z,101520.41
2022-09-17T03:33:50.217Z,101518.22
2022-09-17T03:36:17.515Z,101511.53
2022-09-17T03:38:44.963Z,101530.56
2022-09-17T03:41:12.167Z,101518.22
2022-09-17T03:43:39.975Z,101522.28
2022-09-17T03:46:07.474Z,101529.41
2022-09-17T03:48:37.270Z,101530.66
2022-09-17T03:51:04.711Z,101531.66
2022-09-17T03:53:33.484Z,101520.28
2022-09-17T03:56:02.470Z,101516.31
2022-09-17T03:58:30.915Z,101517.72
2022-09-17T04:00:58.370Z,101527.47
2022-09-17T04:03:27.340Z,101530.50
2022-09-17T04:05:54.993Z,101530.19
2022-09-17T04:08:22.244Z,101539.09
2022-09-17T04:10:49.331Z,101540.34
2022-09-17T04:13:17.277Z,101533.25
2022-09-17T04:15:45.976Z,101552.84
2022-09-17T04:18:13.878Z,101552.81
2022-09-17T04:20:41.551Z,101551.47
2022-09-17T04:23:12.102Z,101548.19
2022-09-17T04:25:39.707Z,101563.53
2022-09-17T04:28:07.667Z,101584.59
2022-09-17T04:30:34.887Z,101576.97
2022-09-17T04:33:02.168Z,101576.41
2022-09-17T04:35:29.427Z,101582.25
2022-09-17T04:37:58.320Z,101567.28
2022-09-17T04:40:27.118Z,101563.84
2022-09-17T04:42:56.273Z,101559.44
2022-09-17T04:45:24.046Z,101558.34
2022-09-17T04:47:51.277Z,101551.75
2022-09-17T04:50:19.351Z,101552.34
2022-09-17T04:52:47.425Z,101552.78
2022-09-17T04:55:15.715Z,101547.69
2022-09-17T04:57:51.235Z,101544.91
2022-09-17T05:00:20.152Z,101554.75
2022-09-17T05:02:50.267Z,101558.34
2022-09-17T05:05:19.103Z,101557.53
2022-09-17T05:07:46.355Z,101569.56
2022-09-17T05:10:15.901Z,101573.16
2022-09-17T05:12:52.744Z,101585.03
2022-09-17T05:15:20.510Z,101589.72
2022-09-17T05:17:47.816Z,101588.66
2022-09-17T05:20:16.264Z,101588.03
2022-09-17T05:22:48.477Z,101594.44
2022-09-17T05:25:18.172Z,101601.97
2022-09-17T05:27:45.789Z,101598.88
2022-09-17T05:30:13.632Z,101598.06
2022-09-17T05:32:41.200Z,101588.09
2022-09-17T05:35:09.647Z,101580.00
2022-09-17T05:37:37.637Z,101573.81
2022-09-17T05:40:08.516Z,101583.75
2022-09-17T05:42:36.208Z,101598.50
2022-09-17T05:45:03.955Z,101593.53
2022-09-17T05:47:31.076Z,101595.31
2022-09-17T05:49:58.155Z,101596.13
2022-09-17T05:52:29.064Z,101601.78
2022-09-17T05:54:56.827Z,101595.97
2022-09-17T05:57:24.517Z,101584.66
2022-09-17T05:59:51.583Z,101590.03
2022-09-17T06:02:18.612Z,101584.66
2022-09-17T06:04:46.583Z,101594.19
2022-09-17T06:07:13.705Z,101598.25
2022-09-17T06:09:41.187Z,101589.31
2022-09-17T06:12:08.644Z,101590.53
2022-09-17T06:14:35.694Z,101599.91
2022-09-17T06:17:02.672Z,101609.44
2022-09-17T06:19:29.694Z,101603.66
2022-09-17T06:21:56.949Z,101615.88
2022-09-17T06:24:24.154Z,101605.25
2022-09-17T06:26:52.653Z,101614.72
2022-09-17T06:29:22.572Z,101599.63
2022-09-17T06:31:50.025Z,101609.09
2022-09-17T06:34:18.052Z,101616.47
2022-09-17T06:36:45.449Z,101620.78
2022-09-17T06:39:13.384Z,101606.13
2022-09-17T06:41:43.313Z,101614.81
2022-09-17T06:44:10.759Z,101615.78
2022-09-17T06:46:37.876Z,101620.91
2022-09-17T06:49:05.085Z,101612.59
2022-09-17T06:51:32.148Z,101604.31
2022-09-17T06:53:59.424Z,101613.44
2022-09-17T06:56:26.573Z,101618.53
2022-09-17T06:58:54.894Z,101626.88
2022-09-17T07:01:24.511Z,101630.06
2022-09-17T07:03:51.767Z,101622.94
2022-09-17T07:06:18.806Z,101626.28
2022-09-17T07:08:47.162Z,101629.09
2022-09-17T07:11:16.230Z,101636.59
2022-09-17T07:13:43.656Z,101635.38
2022-09-17T07:16:11.214Z,101648.00
2022-09-17T07:18:39.195Z,101656.56
2022-09-17T07:21:07.948Z,101663.19
2022-09-17T07:23:37.314Z,101657.25
2022-09-17T07:26:08.478Z,101665.63
2022-09-17T07:28:35.786Z,101657.09
2022-09-17T07:31:09.364Z,101668.59
2022-09-17T07:33:39.050Z,101655.88
2022-09-17T07:36:10.715Z,101665.22
2022-09-17T07:38:41.746Z,101665.25
2022-09-17T07:41:15.897Z,101666.31
2022-09-17T07:43:44.068Z,101667.03
2022-09-17T07:46:18.024Z,101666.66
2022-09-17T07:48:46.651Z,101664.19
2022-09-17T07:51:23.288Z,101638.34
2022-09-17T07:53:55.638Z,101647.97
2022-09-17T07:56:23.981Z,101658.06
2022-09-17T07:58:51.953Z,101655.72
2022-09-17T08:01:21.307Z,101646.50
2022-09-17T08:03:51.682Z,101655.66
2022-09-17T08:06:22.989Z,101656.63
2022-09-17T08:08:53.387Z,101654.66
2022-09-17T08:11:45.057Z,101660.84
2022-09-17T08:14:14.920Z,101655.59
2022-09-17T08:16:42.708Z,101643.00
2022-09-17T08:19:12.940Z,101651.97
2022-09-17T08:21:40.155Z,101645.06
2022-09-17T08:24:07.458Z,101651.97
2022-09-17T08:26:36.683Z,101633.75
2022-09-17T08:29:07.068Z,101645.81
2022-09-17T08:31:34.276Z,101646.13
2022-09-17T08:34:01.485Z,101650.41
2022-09-17T08:36:28.805Z,101636.41
2022-09-17T08:38:56.920Z,101651.09
2022-09-17T08:41:58.087Z,101657.38
2022-09-17T08:44:32.707Z,101678.84
2022-09-17T08:47:06.402Z,101677.44
2022-09-17T08:49:48.933Z,101681.19
2022-09-17T08:52:27.761Z,101669.91
2022-09-17T08:54:54.803Z,101677.75
2022-09-17T08:57:40.279Z,101682.84
2022-09-17T09:00:16.545Z,101676.44
2022-09-17T09:03:05.319Z,101674.03
2022-09-17T09:05:54.112Z,101673.38
2022-09-17T09:09:06.011Z,101679.06
2022-09-17T09:11:34.004Z,101675.19
2022-09-17T09:14:12.208Z,101672.88
2022-09-17T09:16:45.952Z,101681.13
2022-09-17T09:19:30.503Z,101669.28
2022-09-17T09:22:36.547Z,101665.78
2022-09-17T09:25:27.266Z,101675.66
2022-09-17T09:28:20.156Z,101680.31
2022-09-17T09:31:26.538Z,101683.97
2022-09-17T09:33:55.431Z,101685.44
2022-09-17T09:36:22.677Z,101685.28
2022-09-17T09:38:59.182Z,101689.41
2022-09-17T09:41:40.824Z,101685.28
2022-09-17T09:44:14.034Z,101686.94
2022-09-17T09:47:21.209Z,101684.13
2022-09-17T09:50:09.226Z,101683.69
2022-09-17T09:52:51.319Z,101662.72
2022-09-17T09:55:50.263Z,101663.09
2022-09-17T09:58:38.530Z,101663.72
2022-09-17T10:01:30.549Z,101672.34
2022-09-17T10:04:37.401Z,101685.31
2022-09-17T10:07:08.175Z,101678.75
2022-09-17T10:09:38.332Z,101680.28
2022-09-17T10:12:11.585Z,101675.00
2022-09-17T10:14:41.678Z,101679.59
2022-09-17T10:17:20.866Z,101685.81
2022-09-17T10:20:00.198Z,101683.81
2022-09-17T10:22:34.372Z,101681.84
2022-09-17T10:25:03.472Z,101689.81
2022-09-17T10:27:31.195Z,101689.34
2022-09-17T10:30:03.304Z,101677.88
2022-09-17T10:32:30.360Z,101673.25
2022-09-17T10:35:16.414Z,101668.78
2022-09-17T10:37:46.136Z,101667.28
2022-09-17T10:40:19.296Z,101669.53
2022-09-17T10:43:12.218Z,101659.84
2022-09-17T10:45:54.671Z,101664.91
2022-09-17T10:48:22.785Z,101664.41
2022-09-17T10:50:54.401Z,101666.13
2022-09-17T10:53:25.076Z,101652.22
2022-09-17T10:56:22.074Z,101660.16
2022-09-17T10:59:29.972Z,101658.44
2022-09-17T11:02:30.991Z,101667.66
2022-09-17T11:05:27.284Z,101654.84
2022-09-17T11:08:18.226Z,101655.72
2022-09-17T11:10:54.170Z,101651.66
2022-09-17T11:13:45.947Z,101664.78
2022-09-17T11:16:38.742Z,101656.38
2022-09-17T11:19:18.251Z,101662.34
2022-09-17T11:22:18.905Z,101642.06
2022-09-17T11:25:24.493Z,101648.72
2022-09-17T11:28:34.752Z,101648.00
2022-09-17T11:31:31.338Z,101649.34
2022-09-17T11:34:22.395Z,101649.91
2022-09-17T11:37:11.251Z,101634.19
2022-09-17T11:39:55.781Z,101630.19
2022-09-17T11:42:31.862Z,101629.78
2022-09-17T11:45:31.239Z,101629.28
2022-09-17T11:48:16.946Z,101641.78
2022-09-17T11:50:45.482Z,101639.63
2022-09-17T11:53:42.456Z,101682.00
2022-09-17T11:56:49.568Z,101671.09
2022-09-17T11:59:45.204Z,101666.97
2022-09-17T12:02:50.934Z,101667.53
2022-09-17T12:05:46.244Z,101663.00
2022-09-17T12:08:54.970Z,101655.22
2022-09-17T12:11:52.171Z,101657.19
2022-09-17T12:14:59.424Z,101668.91
2022-09-17T12:17:42.764Z,101665.91
2022-09-17T12:20:28.603Z,101656.22
2022-09-17T12:22:58.615Z,101661.75
2022-09-17T12:25:34.110Z,101654.13
2022-09-17T12:28:10.354Z,101670.97
2022-09-17T12:30:47.206Z,101684.88
2022-09-17T12:33:35.002Z,101699.66
2022-09-17T12:36:37.596Z,101664.66
2022-09-17T12:39:23.765Z,101670.91
2022-09-17T12:42:21.619Z,101678.19
2022-09-17T12:45:18.299Z,101675.19
2022-09-17T12:48:23.549Z,101666.59
2022-09-17T12:51:22.359Z,101676.03
2022-09-17T12:54:35.613Z,101665.50
2022-09-17T12:57:20.550Z,101668.38
2022-09-17T13:00:15.809Z,101669.44
2022-09-17T13:03:02.292Z,101663.31
2022-09-17T13:06:03.970Z,101668.13
2022-09-17T13:09:01.082Z,101663.22
2022-09-17T13:12:24.246Z,101652.06
2022-09-17T13:14:57.033Z,101661.03
2022-09-17T13:17:46.654Z,101657.31
2022-09-17T13:21:05.713Z,101665.41
2022-09-17T13:23:44.912Z,101658.56
2022-09-17T13:26:19.468Z,101676.56
2022-09-17T13:28:50.136Z,101679.63
2022-09-17T13:31:23.847Z,101676.25
2022-09-17T13:33:56.171Z,101683.19
2022-09-17T13:36:46.920Z,101679.03
2022-09-17T13:39:45.712Z,101684.41
2022-09-17T13:42:22.072Z,101690.88
2022-09-17T13:45:13.268Z,101678.63
2022-09-17T13:48:04.129Z,101688.94
2022-09-17T13:50:37.778Z,101687.66
2022-09-17T13:53:13.746Z,101686.25
2022-09-17T13:55:58.554Z,101690.00
2022-09-17T13:58:32.139Z,101686.34
2022-09-17T14:01:06.134Z,101689.81
2022-09-17T14:03:40.669Z,101685.50
2022-09-17T14:06:11.272Z,101688.09
2022-09-17T14:08:44.231Z,101696.47
2022-09-17T14:11:26.981Z,101699.41
2022-09-17T14:14:06.489Z,101697.78
2022-09-17T14:16:50.416Z,101702.28
2022-09-17T14:19:51.338Z,101697.47
2022-09-17T14:22:26.072Z,101703.06
2022-09-17T14:24:55.123Z,101699.63
2022-09-17T14:27:42.516Z,101693.63
2022-09-17T14:30:23.366Z,101693.09
2022-09-17T14:33:11.383Z,101687.34
2022-09-17T14:35:57.551Z,101689.88
2022-09-17T14:38:44.670Z,101693.22
2022-09-17T14:41:11.702Z,101694.03
2022-09-17T14:43:57.417Z,101697.28
2022-09-17T14:47:13.472Z,101707.66
2022-09-17T14:49:41.069Z,101710.66
2022-09-17T14:52:32.701Z,101716.84
2022-09-17T14:55:16.815Z,101702.44
2022-09-17T14:57:46.677Z,101706.50
2022-09-17T15:00:26.314Z,101717.88
2022-09-17T15:02:56.060Z,101718.53
2022-09-17T15:05:31.839Z,101717.59
2022-09-17T15:08:28.930Z,101724.41
2022-09-17T15:10:59.485Z,101719.41
2022-09-17T15:13:33.060Z,101715.22
2022-09-17T15:16:07.675Z,101720.09
2022-09-17T15:18:41.531Z,101722.75
2022-09-17T15:21:43.370Z,101714.19
2022-09-17T15:25:06.527Z,101709.56
2022-09-17T15:27:43.508Z,101712.50
2022-09-17T15:30:20.846Z,101711.03
2022-09-17T15:32:54.098Z,101716.63
2022-09-17T15:35:30.020Z,101707.69
2022-09-17T15:38:22.173Z,101708.06
2022-09-17T15:40:50.471Z,101707.06
2022-09-17T15:43:34.011Z,101711.72
2022-09-17T15:46:26.910Z,101720.78
2022-09-17T15:49:00.297Z,101723.25
2022-09-17T15:51:32.436Z,101738.22
2022-09-17T15:54:30.486Z,101734.22
2022-09-17T15:57:01.506Z,101739.16
2022-09-17T15:59:32.051Z,101734.78
2022-09-17T16:02:02.021Z,101739.72
2022-09-17T16:04:33.723Z,101737.94
2022-09-17T16:07:08.267Z,101740.78
2022-09-17T16:09:47.106Z,101733.91
2022-09-17T16:12:23.837Z,101733.84
2022-09-17T16:14:56.916Z,101729.56
2022-09-17T16:17:29.389Z,101742.47
2022-09-17T16:19:56.924Z,101728.56
2022-09-17T16:22:24.078Z,101733.00
2022-09-17T16:24:51.135Z,101722.22
2022-09-17T16:27:25.317Z,101718.03
2022-09-17T16:30:00.139Z,101726.72
2022-09-17T16:32:27.167Z,101722.13
2022-09-17T16:34:54.125Z,101720.97
2022-09-17T16:37:21.195Z,101708.22
2022-09-17T16:39:48.342Z,101717.16
2022-09-17T16:42:15.374Z,101709.88
2022-09-17T16:44:42.390Z,101703.91
2022-09-17T16:47:09.454Z,101703.03
2022-09-17T16:49:36.603Z,101707.41
2022-09-17T16:52:03.649Z,101707.56
2022-09-17T16:54:30.689Z,101705.09
2022-09-17T16:57:00.987Z,101711.84
2022-09-17T16:59:28.089Z,101714.69
2022-09-17T17:01:55.123Z,101710.38
2022-09-17T17:04:22.727Z,101714.66
2022-09-17T17:06:49.880Z,101720.97
2022-09-17T17:09:16.922Z,101722.59
2022-09-17T17:11:44.112Z,101732.34
2022-09-17T17:14:14.678Z,101734.16
2022-09-17T17:16:43.720Z,101736.97
2022-09-17T17:19:11.057Z,101738.53
2022-09-17T17:21:38.248Z,101740.94
2022-09-17T17:24:06.859Z,101739.94
2022-09-17T17:26:34.823Z,101735.81
2022-09-17T17:29:02.633Z,101755.31
2022-09-17T17:31:29.885Z,101761.47
2022-09-17T17:33:58.107Z,101771.63
2022-09-17T17:36:25.096Z,101774.31
2022-09-17T17:38:57.708Z,101760.25
2022-09-17T17:41:26.443Z,101757.38
2022-09-17T17:43:55.262Z,101772.59
2022-09-17T17:46:23.390Z,101773.84
2022-09-17T17:48:51.365Z,101771.13
2022-09-17T17:51:20.563Z,101767.31
2022-09-17T17:53:47.701Z,101763.66
2022-09-17T17:56:15.234Z,101758.72
2022-09-17T17:58:42.628Z,101749.09
2022-09-17T18:01:23.194Z,101750.66
2022-09-17T18:03:50.495Z,101755.25
2022-09-17T18:06:17.596Z,101754.31
2022-09-17T18:08:54.067Z,101756.88
2022-09-17T18:11:22.773Z,101756.06
2022-09-17T18:13:55.521Z,101765.44
2022-09-17T18:16:24.129Z,101751.09
2022-09-17T18:18:51.633Z,101762.81
2022-09-17T18:21:24.160Z,101758.13
2022-09-17T18:23:51.685Z,101766.59
2022-09-17T18:26:27.761Z,101769.25
2022-09-17T18:28:55.187Z,101767.03
2022-09-17T18:31:34.792Z,101763.09
2022-09-17T18:34:08.098Z,101765.19
2022-09-17T18:36:37.121Z,101777.50
2022-09-17T18:39:44.566Z,101794.13
2022-09-17T18:41:54.445Z,101780.84
2022-09-17T18:44:23.082Z,101769.25
2022-09-17T18:46:51.401Z,101764.00
2022-09-17T18:49:18.716Z,101770.44
2022-09-17T18:51:45.966Z,101772.53
2022-09-17T18:54:13.515Z,101769.84
2022-09-17T18:56:41.876Z,101772.94
2022-09-17T18:59:09.923Z,101770.91
2022-09-17T19:01:37.709Z,101773.28
2022-09-17T19:04:07.700Z,101771.09
2022-09-17T19:06:35.700Z,101781.34
2022-09-17T19:09:04.797Z,101765.81
2022-09-17T19:11:32.332Z,101769.44
2022-09-17T19:14:02.613Z,101769.34
2022-09-17T19:16:29.917Z,101775.44
2022-09-17T19:18:58.419Z,101773.84
2022-09-17T19:21:27.184Z,101776.31
2022-09-17T19:23:58.037Z,101776.47
2022-09-17T19:26:27.297Z,101772.56
2022-09-17T19:29:03.311Z,101778.28
2022-09-17T19:31:30.614Z,101777.59
2022-09-17T19:33:59.181Z,101776.88
2022-09-17T19:36:27.001Z,101780.25
2022-09-17T19:38:54.480Z,101786.44
2022-09-17T19:41:23.611Z,101792.91
2022-09-17T19:43:55.355Z,101793.41
2022-09-17T19:46:25.520Z,101807.53
2022-09-17T19:48:55.444Z,101808.69
2022-09-17T19:51:25.700Z,101802.84
2022-09-17T19:53:53.839Z,101811.16
2022-09-17T19:56:24.548Z,101813.53
2022-09-17T19:58:52.500Z,101811.47
2022-09-17T20:01:20.524Z,101804.84
2022-09-17T20:03:51.131Z,101798.63
2022-09-17T20:06:20.925Z,101799.38
2022-09-17T20:08:50.763Z,101793.03
2022-09-17T20:11:20.730Z,101803.47
2022-09-17T20:13:48.009Z,101790.63
2022-09-17T20:16:21.606Z,101789.56
2022-09-17T20:18:49.840Z,101790.41
2022-09-17T20:21:25.039Z,101788.72
2022-09-17T20:23:52.489Z,101779.16
2022-09-17T20:26:20.710Z,101775.38
2022-09-17T20:28:50.371Z,101775.72
2022-09-17T20:31:23.366Z,101782.13
2022-09-17T20:33:59.230Z,101772.28
2022-09-17T20:36:31.085Z,101776.78
2022-09-17T20:39:21.127Z,101780.94
2022-09-17T20:41:46.016Z,101789.59
2022-09-17T20:44:13.188Z,101783.69
2022-09-17T20:46:40.589Z,101785.81
2022-09-17T20:49:07.859Z,101788.00
2022-09-17T20:51:35.577Z,101782.06
2022-09-17T20:54:03.724Z,101781.69
2022-09-17T20:56:34.455Z,101789.53
2022-09-17T20:59:15.291Z,101789.81
2022-09-17T21:01:45.441Z,101785.28
2022-09-17T21:04:16.595Z,101786.41
2022-09-17T21:06:44.555Z,101782.94
2022-09-17T21:09:16.715Z,101788.94
2022-09-17T21:11:46.595Z,101789.47
2022-09-17T21:14:15.934Z,101793.41
2022-09-17T21:16:43.585Z,101793.38
2022-09-17T21:19:13.057Z,101796.78
2022-09-17T21:21:40.151Z,101794.59
2022-09-17T21:24:10.225Z,101798.09
2022-09-17T21:26:37.844Z,101805.38
2022-09-17T21:29:05.386Z,101806.13
2022-09-17T21:31:35.881Z,101796.34
2022-09-17T21:34:12.695Z,101783.91
2022-09-17T21:36:41.563Z,101793.53
2022-09-17T21:39:14.819Z,101786.19
2022-09-17T21:41:43.281Z,101774.25
2022-09-17T21:44:13.867Z,101780.13
2022-09-17T21:46:41.951Z,101771.25
2022-09-17T21:49:09.747Z,101776.34
2022-09-17T21:51:42.802Z,101782.91
2022-09-17T21:54:13.218Z,101782.25
2022-09-17T21:56:40.432Z,101780.28
2022-09-17T21:59:11.156Z,101777.31
2022-09-17T22:01:43.652Z,101778.75
2022-09-17T22:04:16.621Z,101782.13
2022-09-17T22:06:44.692Z,101769.66
2022-09-17T22:09:19.841Z,101775.84
2022-09-17T22:11:47.607Z,101772.97
2022-09-17T22:14:20.811Z,101774.53
2022-09-17T22:16:52.674Z,101775.28
2022-09-17T22:19:21.282Z,101783.97
2022-09-17T22:21:51.722Z,101774.22
2022-09-17T22:24:21.153Z,101774.22
2022-09-17T22:26:56.538Z,101778.16
2022-09-17T22:29:24.965Z,101772.91
2022-09-17T22:31:51.951Z,101775.25
2022-09-17T22:34:21.342Z,101777.28
2022-09-17T22:36:49.351Z,101776.19
2022-09-17T22:39:19.085Z,101778.44
2022-09-17T22:41:46.270Z,101778.38
2022-09-17T22:44:17.747Z,101774.47
2022-09-17T22:46:48.169Z,101775.78
2022-09-17T22:49:16.222Z,101782.66
2022-09-17T22:51:44.725Z,101774.91
2022-09-17T22:54:14.286Z,101777.59
2022-09-17T22:56:42.165Z,101768.91
2022-09-17T22:59:09.749Z,101764.59
2022-09-17T23:01:39.083Z,101764.88
2022-09-17T23:04:06.581Z,101761.97
2022-09-17T23:06:38.260Z,101767.03
2022-09-17T23:09:06.136Z,101765.13
2022-09-17T23:11:39.133Z,101755.78
2022-09-17T23:14:11.130Z,101752.47
2022-09-17T23:16:42.879Z,101754.22
2022-09-17T23:19:10.574Z,101753.69
2022-09-17T23:21:38.680Z,101756.84
2022-09-17T23:24:06.525Z,101756.69
2022-09-17T23:26:33.645Z,101753.38
2022-09-17T23:29:04.913Z,101756.13
2022-09-17T23:31:34.911Z,101755.31
2022-09-17T23:34:03.940Z,101754.03
2022-09-17T23:36:34.980Z,101750.88
2022-09-17T23:39:03.711Z,101741.59
2022-09-17T23:41:36.779Z,101750.63
2022-09-17T23:44:12.102Z,101749.75
2022-09-17T23:46:41.989Z,101746.16
2022-09-17T23:49:12.195Z,101749.25
2022-09-17T23:51:39.184Z,101748.09
2022-09-17T23:54:07.294Z,101741.78
2022-09-17T23:56:35.366Z,101740.69
2022-09-17T23:59:02.852Z,101738.28
